Time;durP1;ratioP1;P1;durP2;ratioP2;P2;SDS_P1;SDS_P2;PMS_P1;PMS_P2;Temp;Humidity;BMP_temperature;BMP_pressure;BME280_temperature;BME280_humidity;BME280_pressure;Samples;Min_cycle;Max_cycle;Signal;HPM_P1;HPM_P2
2022/10/22 00:00:41;;;;;;;28.88;13.48;;;;;;;9.04;81.76;100409.00;2073576;28;20297;-73
2022/10/22 00:01:46;;;;;;;29.30;13.90;;;;;;;9.08;82.25;100411.16;2057743;28;20789;-74
2022/10/22 00:02:50;;;;;;;40.72;15.27;;;;;;;9.09;81.58;100412.78;2059158;28;20301;-71
2022/10/22 00:03:52;;;;;;;29.67;13.93;;;;;;;9.10;81.90;100409.81;2074260;28;20299;-71
2022/10/22 00:05:00;;;;;;;30.85;14.38;;;;;;;9.10;81.85;100406.31;2066252;28;20286;-72
2022/10/22 00:06:04;;;;;;;35.15;14.10;;;;;;;9.11;81.62;100407.91;2065718;28;20293;-72
2022/10/22 00:07:17;;;;;;;30.63;14.07;;;;;;;9.11;81.42;100411.44;2064873;28;20284;-73
2022/10/22 00:08:25;;;;;;;31.83;14.80;;;;;;;9.10;81.65;100409.81;2064740;28;20281;-74
2022/10/22 00:09:32;;;;;;;33.08;14.27;;;;;;;9.11;81.52;100413.28;2065086;28;20321;-72
2022/10/22 00:10:38;;;;;;;35.33;13.75;;;;;;;9.09;81.88;100410.09;2064650;28;20289;-73
2022/10/22 00:11:50;;;;;;;37.25;14.68;;;;;;;9.09;81.91;100415.47;2065293;28;20301;-73
2022/10/22 00:12:53;;;;;;;29.83;14.20;;;;;;;9.08;81.29;100419.19;2065814;28;20289;-72
2022/10/22 00:13:59;;;;;;;36.72;13.95;;;;;;;9.07;81.62;100412.22;2067048;28;20118;-72
2022/10/22 00:15:09;;;;;;;30.73;15.00;;;;;;;9.07;81.90;100409.56;2072689;28;20932;-72
2022/10/22 00:16:17;;;;;;;42.63;14.23;;;;;;;9.04;81.81;100409.00;2065711;28;20965;-72
2022/10/22 00:17:20;;;;;;;34.95;14.60;;;;;;;9.02;82.09;100405.81;2073087;28;20293;-72
2022/10/22 00:18:23;;;;;;;31.42;14.82;;;;;;;9.02;81.65;100405.81;2072071;28;20309;-72
2022/10/22 00:19:27;;;;;;;32.63;14.70;;;;;;;9.01;81.82;100409.56;2073616;28;20779;-72
2022/10/22 00:20:32;;;;;;;34.85;14.93;;;;;;;8.98;81.91;100407.41;2073507;28;20296;-73
2022/10/22 00:21:40;;;;;;;35.50;15.85;;;;;;;8.98;82.22;100402.03;2065986;28;20316;-73
2022/10/22 00:22:43;;;;;;;33.08;15.05;;;;;;;8.98;82.10;100403.94;2066071;28;20650;-72
2022/10/22 00:23:45;;;;;;;33.75;16.02;;;;;;;8.97;82.37;100402.34;2065692;28;20293;-73
2022/10/22 00:24:48;;;;;;;37.22;15.88;;;;;;;8.96;82.61;100398.84;2057817;28;20290;-72
2022/10/22 00:25:54;;;;;;;35.63;15.35;;;;;;;8.96;82.35;100404.22;2065848;28;20308;-72
2022/10/22 00:26:57;;;;;;;34.78;15.80;;;;;;;8.96;82.40;100401.53;2082020;28;20279;-72
2022/10/22 00:28:03;;;;;;;33.83;15.13;;;;;;;8.95;82.20;100399.94;2073629;28;20291;-72
2022/10/22 00:29:08;;;;;;;34.42;15.55;;;;;;;8.96;82.30;100396.16;2065120;28;20353;-72
2022/10/22 00:30:15;;;;;;;33.92;15.70;;;;;;;8.93;82.73;100399.41;2073567;28;20700;-73
2022/10/22 00:31:20;;;;;;;33.50;14.95;;;;;;;8.93;81.96;100396.72;2073944;28;20594;-73
2022/10/22 00:32:22;;;;;;;40.40;15.40;;;;;;;8.92;82.84;100400.47;2065956;28;20669;-72
2022/10/22 00:33:27;;;;;;;39.50;16.08;;;;;;;8.95;83.12;100399.09;2073716;28;20289;-73
2022/10/22 00:34:29;;;;;;;38.78;15.25;;;;;;;8.95;82.77;100405.31;2064635;28;20293;-72
2022/10/22 00:35:34;;;;;;;41.53;15.48;;;;;;;8.95;83.03;100402.63;2058703;28;20317;-72
2022/10/22 00:36:37;;;;;;;44.10;15.60;;;;;;;8.97;82.94;100402.34;2073571;28;20787;-72
2022/10/22 00:37:39;;;;;;;32.47;16.20;;;;;;;8.96;82.65;100409.59;2073783;28;20292;-72
2022/10/22 00:38:42;;;;;;;57.20;17.00;;;;;;;8.98;82.66;100407.41;2073823;28;20779;-72
2022/10/22 00:39:47;;;;;;;58.55;19.92;;;;;;;9.00;82.39;100405.28;2065375;28;20289;-72
2022/10/22 00:40:49;;;;;;;38.80;16.00;;;;;;;9.00;82.55;100397.22;2057208;28;20294;-73
2022/10/22 00:41:52;;;;;;;51.58;16.70;;;;;;;8.99;82.78;100392.94;2056507;28;20306;-72
2022/10/22 00:42:58;;;;;;;52.42;16.38;;;;;;;9.00;82.29;100391.06;2056935;28;20298;-72
2022/10/22 00:44:06;;;;;;;61.05;16.67;;;;;;;9.01;82.60;100393.47;2072429;28;20292;-72
2022/10/22 00:45:18;;;;;;;46.25;17.05;;;;;;;9.02;82.48;100392.41;2056199;28;20324;-73
2022/10/22 00:46:22;;;;;;;52.05;16.27;;;;;;;9.04;82.37;100387.56;2043335;28;20736;-72
2022/10/22 00:47:27;;;;;;;48.58;15.95;;;;;;;9.04;82.90;100384.88;2048259;29;20323;-71
2022/10/22 00:48:33;;;;;;;50.33;15.70;;;;;;;9.07;82.21;100385.41;2049044;28;20291;-72
2022/10/22 00:49:35;;;;;;;41.08;15.02;;;;;;;9.11;82.92;100389.97;2064421;28;20285;-72
2022/10/22 00:50:47;;;;;;;45.08;15.60;;;;;;;9.13;82.50;100387.00;2056572;28;20298;-72
2022/10/22 00:51:52;;;;;;;46.65;15.88;;;;;;;9.12;82.22;100388.09;2064084;28;20297;-72
2022/10/22 00:52:56;;;;;;;45.25;15.88;;;;;;;9.13;82.24;100384.31;2056482;28;20801;-71
2022/10/22 00:54:05;;;;;;;48.67;16.52;;;;;;;9.14;82.62;100385.91;2049827;28;20326;-71
2022/10/22 00:55:12;;;;;;;38.95;16.00;;;;;;;9.15;82.43;100385.66;2058572;28;20282;-72
2022/10/22 00:56:17;;;;;;;40.03;15.65;;;;;;;9.17;82.24;100380.81;2065444;28;20282;-72
2022/10/22 00:57:21;;;;;;;39.15;15.18;;;;;;;9.18;81.92;100376.28;2065363;28;20332;-72
2022/10/22 00:58:26;;;;;;;39.67;15.32;;;;;;;9.14;82.37;100370.66;2064930;28;20796;-72
2022/10/22 00:59:29;;;;;;;44.47;15.05;;;;;;;9.15;82.42;100374.13;2067506;28;20293;-72
2022/10/22 01:00:32;;;;;;;35.70;14.63;;;;;;;9.16;82.23;100373.06;2073424;28;20300;-72
2022/10/22 01:01:35;;;;;;;32.92;14.00;;;;;;;9.19;82.40;100375.19;2065409;28;20658;-72
2022/10/22 01:02:40;;;;;;;31.70;14.60;;;;;;;9.20;82.05;100363.38;2066062;28;20297;-72
2022/10/22 01:03:48;;;;;;;42.83;15.50;;;;;;;9.21;82.32;100365.00;2065436;28;20297;-72
2022/10/22 01:04:51;;;;;;;31.65;15.35;;;;;;;9.23;82.41;100365.50;2058216;28;20297;-72
2022/10/22 01:05:56;;;;;;;32.30;14.38;;;;;;;9.23;82.06;100370.88;2065381;28;20673;-72
2022/10/22 01:07:00;;;;;;;30.50;13.90;;;;;;;9.24;81.76;100365.25;2070468;28;20277;-72
2022/10/22 01:08:03;;;;;;;32.33;14.55;;;;;;;9.24;81.83;100364.44;2073578;28;20297;-72
2022/10/22 01:09:19;;;;;;;29.88;14.13;;;;;;;9.25;81.66;100360.69;2071928;28;20284;-71
2022/10/22 01:10:45;;;;;;;31.52;13.75;;;;;;;9.28;81.62;100373.56;2058292;28;20317;-71
2022/10/22 01:12:19;;;;;;;31.60;14.55;;;;;;;9.29;81.55;100361.72;2062765;28;20289;-71
2022/10/22 01:13:25;;;;;;;34.00;14.40;;;;;;;9.29;81.92;100367.09;2076290;28;20292;-71
2022/10/22 01:14:41;;;;;;;27.65;13.57;;;;;;;9.29;81.78;100359.06;2065080;28;20300;-71
2022/10/22 01:15:50;;;;;;;34.97;13.88;;;;;;;9.30;81.79;100360.66;2071919;28;20300;-71
2022/10/22 01:17:02;;;;;;;30.00;13.65;;;;;;;9.29;81.73;100364.41;2065372;28;20976;-71
2022/10/22 01:18:22;;;;;;;31.27;14.35;;;;;;;9.28;81.64;100357.44;2029065;28;1113884;-71
2022/10/22 01:19:38;;;;;;;31.27;14.15;;;;;;;9.27;81.47;100342.44;2064946;28;20664;-71
2022/10/22 01:20:57;;;;;;;33.28;14.27;;;;;;;9.27;81.69;100343.25;2072852;28;20319;-71
2022/10/22 01:22:21;;;;;;;32.17;14.27;;;;;;;9.27;81.09;100339.75;2073832;28;20296;-71
2022/10/22 01:23:26;;;;;;;32.95;14.32;;;;;;;9.25;81.03;100340.03;2068123;28;20037;-72
2022/10/22 01:25:08;;;;;;;32.58;13.45;;;;;;;9.25;81.40;100345.38;2066520;28;20293;-72
2022/10/22 01:26:36;;;;;;;33.35;14.38;;;;;;;9.26;81.70;100343.50;2078722;28;20268;-71
2022/10/22 01:27:56;;;;;;;31.58;13.48;;;;;;;9.26;81.77;100341.63;2073452;28;20617;-71
2022/10/22 01:29:17;;;;;;;31.10;14.05;;;;;;;9.28;81.78;100344.03;2073234;28;20057;-70
2022/10/22 01:30:20;;;;;;;36.28;13.68;;;;;;;9.29;81.56;100340.25;2072524;28;20312;-70
2022/10/22 01:31:29;;;;;;;30.92;14.00;;;;;;;9.28;81.38;100342.16;2073516;28;20384;-70
2022/10/22 01:32:37;;;;;;;28.83;14.15;;;;;;;9.30;81.28;100341.91;2073571;28;20307;-70
2022/10/22 01:33:39;;;;;;;29.52;13.57;;;;;;;9.29;81.52;100337.59;2058380;28;20286;-71
2022/10/22 01:34:45;;;;;;;34.65;14.57;;;;;;;9.26;81.39;100333.56;2057629;28;20312;-70
2022/10/22 01:35:49;;;;;;;30.70;14.77;;;;;;;9.27;81.75;100337.06;2073679;28;20284;-71
2022/10/22 01:36:54;;;;;;;31.35;14.52;;;;;;;9.26;81.56;100336.25;2072387;28;20304;-71
2022/10/22 01:38:02;;;;;;;36.10;14.38;;;;;;;9.26;81.59;100336.25;2064754;28;20289;-72
2022/10/22 01:39:09;;;;;;;28.85;13.65;;;;;;;9.27;81.38;100340.56;2064932;28;20061;-72
2022/10/22 01:40:16;;;;;;;30.50;14.43;;;;;;;9.27;81.79;100337.88;2072508;28;20780;-72
2022/10/22 01:41:23;;;;;;;34.08;14.68;;;;;;;9.25;81.39;100339.22;2072299;28;20355;-72
2022/10/22 01:42:29;;;;;;;32.42;13.95;;;;;;;9.24;81.16;100338.41;2072663;28;20300;-71
2022/10/22 01:43:35;;;;;;;31.27;14.32;;;;;;;9.25;81.34;100342.69;2071750;28;20291;-71
2022/10/22 01:44:40;;;;;;;28.27;13.73;;;;;;;9.25;81.23;100340.03;2071138;28;20371;-72
2022/10/22 01:45:47;;;;;;;30.27;14.27;;;;;;;9.23;81.25;100347.53;2071753;28;20285;-72
2022/10/22 01:46:55;;;;;;;27.20;13.63;;;;;;;9.24;81.59;100343.00;2072435;28;20295;-73
2022/10/22 01:48:06;;;;;;;33.67;14.93;;;;;;;9.23;81.43;100344.84;2072424;28;20297;-72
2022/10/22 01:49:16;;;;;;;29.58;13.73;;;;;;;9.24;81.61;100348.34;2073501;28;20645;-72
2022/10/22 01:50:30;;;;;;;32.53;14.27;;;;;;;9.22;81.55;100347.81;2073170;28;20284;-72
2022/10/22 01:52:14;;;;;;;30.60;14.02;;;;;;;9.21;81.24;100338.97;2065262;28;20356;-72
2022/10/22 01:53:18;;;;;;;29.00;14.18;;;;;;;9.18;81.56;100342.19;2076873;28;20311;-72
2022/10/22 01:54:45;;;;;;;36.97;14.32;;;;;;;9.18;81.60;100338.72;2064886;28;20293;-72
2022/10/22 01:56:02;;;;;;;32.42;15.05;;;;;;;9.17;81.27;100343.25;2072144;28;20284;-72
2022/10/22 01:57:24;;;;;;;30.65;14.35;;;;;;;9.18;81.31;100339.53;2073433;28;20777;-72
2022/10/22 01:59:13;;;;;;;34.70;14.65;;;;;;;9.18;82.05;100336.84;2068463;28;20281;-72
2022/10/22 02:00:18;;;;;;;29.88;13.80;;;;;;;9.12;81.11;100339.81;2038271;29;20295;-72
2022/10/22 02:01:48;;;;;;;32.17;14.02;;;;;;;9.09;81.44;100340.38;2058410;28;20289;-72
2022/10/22 02:03:09;;;;;;;30.33;13.70;;;;;;;9.05;81.57;100340.09;2068326;28;20394;-72
2022/10/22 02:04:20;;;;;;;31.05;14.48;;;;;;;9.01;81.78;100342.50;2067840;28;20361;-72
2022/10/22 02:05:22;;;;;;;30.02;14.10;;;;;;;8.98;82.25;100334.22;2065967;28;20274;-72
2022/10/22 02:06:28;;;;;;;29.30;13.93;;;;;;;8.97;81.80;100338.78;2065728;28;20645;-72
2022/10/22 02:07:46;;;;;;;35.70;14.48;;;;;;;8.97;82.31;100332.63;2065252;28;20285;-72
2022/10/22 02:08:50;;;;;;;33.28;14.45;;;;;;;8.99;82.75;100336.63;2067343;28;20292;-72
2022/10/22 02:09:55;;;;;;;30.42;14.60;;;;;;;9.03;82.63;100337.69;2072090;28;20291;-72
2022/10/22 02:11:01;;;;;;;36.28;15.55;;;;;;;9.08;83.10;100336.88;2065175;28;20777;-72
2022/10/22 02:12:07;;;;;;;31.85;16.13;;;;;;;9.11;82.79;100330.97;2065101;28;20286;-72
2022/10/22 02:13:17;;;;;;;29.83;14.95;;;;;;;9.13;82.45;100333.38;2056353;28;20047;-72
2022/10/22 02:14:19;;;;;;;32.47;15.13;;;;;;;9.16;82.93;100338.97;2058284;28;20290;-72
2022/10/22 02:15:24;;;;;;;30.70;14.02;;;;;;;9.16;82.73;100335.50;2064150;28;20046;-71
2022/10/22 02:16:44;;;;;;;31.60;14.43;;;;;;;9.19;82.53;100337.63;2057505;28;20286;-72
2022/10/22 02:17:53;;;;;;;34.92;14.93;;;;;;;9.21;82.73;100338.16;2058959;28;20301;-73
2022/10/22 02:19:01;;;;;;;37.40;16.35;;;;;;;9.20;82.46;100336.56;2058530;28;20038;-71
2022/10/22 02:20:12;;;;;;;38.13;14.27;;;;;;;9.20;82.59;100340.03;2072909;28;20050;-72
2022/10/22 02:21:18;;;;;;;32.80;15.23;;;;;;;9.21;82.69;100341.66;2063957;28;20836;-72
2022/10/22 02:22:20;;;;;;;31.17;13.60;;;;;;;9.20;82.37;100331.97;2064800;28;20514;-72
2022/10/22 02:23:25;;;;;;;33.42;15.10;;;;;;;9.21;82.40;100333.59;2071407;28;20296;-72
2022/10/22 02:24:28;;;;;;;31.58;15.07;;;;;;;9.22;82.73;100339.78;2056792;28;20309;-72
2022/10/22 02:25:37;;;;;;;27.98;15.27;;;;;;;9.22;82.15;100337.09;2056301;28;20293;-71
2022/10/22 02:26:48;;;;;;;33.28;15.88;;;;;;;9.23;82.62;100336.00;2065142;28;20610;-71
2022/10/22 02:28:05;;;;;;;28.08;14.63;;;;;;;9.22;82.31;100334.41;2065562;28;20414;-71
2022/10/22 02:29:14;;;;;;;28.27;14.35;;;;;;;9.22;82.07;100331.72;2073952;28;20579;-71
2022/10/22 02:30:22;;;;;;;33.22;15.95;;;;;;;9.23;82.54;100331.44;2078193;28;20715;-72
2022/10/22 02:31:31;;;;;;;37.05;15.27;;;;;;;9.24;82.11;100333.06;2072298;28;20299;-73
2022/10/22 02:32:38;;;;;;;34.00;15.25;;;;;;;9.23;81.88;100334.13;2058261;28;20301;-73
2022/10/22 02:33:50;;;;;;;33.63;15.38;;;;;;;9.22;81.97;100323.66;2066304;28;20042;-71
2022/10/22 02:34:57;;;;;;;31.98;15.27;;;;;;;9.22;82.12;100329.84;2065428;28;20281;-71
2022/10/22 02:36:04;;;;;;;34.10;15.60;;;;;;;9.21;82.45;100324.75;2065974;28;20766;-71
2022/10/22 02:37:08;;;;;;;29.92;14.93;;;;;;;9.22;81.99;100329.03;2073095;28;20657;-70
2022/10/22 02:38:12;;;;;;;36.83;15.80;;;;;;;9.22;82.13;100329.03;2065006;28;20296;-71
2022/10/22 02:39:19;;;;;;;33.00;15.27;;;;;;;9.21;82.44;100324.75;2065453;28;20293;-73
2022/10/22 02:40:23;;;;;;;34.70;15.13;;;;;;;9.22;82.26;100321.00;2065227;28;20292;-71
2022/10/22 02:41:32;;;;;;;34.65;15.57;;;;;;;9.22;82.22;100318.31;2074025;28;20277;-71
2022/10/22 02:42:37;;;;;;;34.25;15.48;;;;;;;9.23;82.02;100319.91;2064554;28;20312;-71
2022/10/22 02:43:44;;;;;;;35.88;15.45;;;;;;;9.21;81.87;100322.06;2058018;28;20675;-71
2022/10/22 02:44:47;;;;;;;30.80;15.07;;;;;;;9.22;82.24;100323.66;2057779;28;20294;-71
2022/10/22 02:45:55;;;;;;;35.42;15.68;;;;;;;9.21;82.37;100322.88;2063743;28;20666;-71
2022/10/22 02:46:58;;;;;;;33.33;16.05;;;;;;;9.20;81.94;100328.50;2064967;28;20292;-71
2022/10/22 02:48:07;;;;;;;35.33;15.90;;;;;;;9.17;81.60;100319.13;2064228;28;20634;-70
2022/10/22 02:49:10;;;;;;;33.45;15.13;;;;;;;9.16;82.15;100325.56;2065032;28;20685;-70
2022/10/22 02:50:14;;;;;;;36.33;16.00;;;;;;;9.15;82.39;100323.97;2071831;28;20293;-71
2022/10/22 02:51:18;;;;;;;36.90;15.60;;;;;;;9.13;82.24;100325.31;2072125;28;20281;-71
2022/10/22 02:52:24;;;;;;;32.72;15.35;;;;;;;9.13;81.80;100333.38;2071413;28;20283;-71
2022/10/22 02:53:27;;;;;;;33.47;14.98;;;;;;;9.09;81.70;100340.38;2063992;28;20281;-71
2022/10/22 02:54:33;;;;;;;36.75;16.77;;;;;;;9.07;81.93;100342.50;2071295;28;20634;-72
2022/10/22 02:55:35;;;;;;;34.22;15.27;;;;;;;9.07;81.97;100339.81;2071510;28;20300;-71
2022/10/22 02:56:40;;;;;;;32.15;15.10;;;;;;;9.04;82.47;100338.47;2063706;28;20300;-72
2022/10/22 02:57:45;;;;;;;35.50;15.65;;;;;;;9.02;82.28;100338.78;2056762;28;20649;-72
2022/10/22 02:58:47;;;;;;;33.72;15.18;;;;;;;9.02;82.52;100330.72;2063989;28;20289;-72
2022/10/22 02:59:53;;;;;;;34.25;15.13;;;;;;;9.01;82.76;100334.47;2063889;28;20293;-72
2022/10/22 03:00:56;;;;;;;29.73;15.88;;;;;;;9.00;82.67;100330.19;2069587;28;20296;-72
2022/10/22 03:02:01;;;;;;;36.28;14.50;;;;;;;9.01;82.83;100334.47;2072858;28;20323;-72
2022/10/22 03:03:06;;;;;;;33.63;15.75;;;;;;;9.00;83.09;100324.81;2065260;28;20618;-72
2022/10/22 03:04:09;;;;;;;35.35;15.73;;;;;;;8.99;82.99;100327.78;2057001;28;20282;-72
2022/10/22 03:05:12;;;;;;;32.88;15.07;;;;;;;8.98;82.92;100324.28;2057445;28;20730;-72
2022/10/22 03:06:17;;;;;;;31.90;16.08;;;;;;;9.00;83.31;100321.34;2065577;28;20288;-72
2022/10/22 03:07:20;;;;;;;31.08;15.20;;;;;;;9.02;83.34;100327.25;2064790;28;20304;-71
2022/10/22 03:08:24;;;;;;;31.52;15.30;;;;;;;9.02;83.02;100322.69;2065005;28;20284;-72
2022/10/22 03:09:28;;;;;;;41.17;15.60;;;;;;;9.03;83.51;100315.44;2064648;28;20290;-72
2022/10/22 03:10:30;;;;;;;36.05;15.60;;;;;;;9.07;83.17;100313.00;2065245;28;20304;-72
2022/10/22 03:11:33;;;;;;;31.08;15.63;;;;;;;9.08;82.88;100315.44;2064978;28;20297;-72
2022/10/22 03:12:36;;;;;;;34.92;15.18;;;;;;;9.10;83.04;100315.94;2065072;28;20290;-72
2022/10/22 03:13:42;;;;;;;35.17;15.23;;;;;;;9.10;83.42;100313.25;2064950;28;20314;-72
2022/10/22 03:14:47;;;;;;;34.53;15.18;;;;;;;9.11;83.12;100316.72;2064813;28;20301;-73
2022/10/22 03:15:54;;;;;;;31.73;15.85;;;;;;;9.12;83.10;100307.63;2064097;28;20304;-72
2022/10/22 03:16:59;;;;;;;34.03;14.88;;;;;;;9.14;83.09;100318.88;2064402;28;20289;-72
2022/10/22 03:18:07;;;;;;;33.42;15.10;;;;;;;9.17;82.57;100316.44;2064115;28;20057;-72
2022/10/22 03:19:15;;;;;;;31.05;14.30;;;;;;;9.21;83.35;100316.72;2065658;28;20285;-72
2022/10/22 03:20:23;;;;;;;36.88;15.48;;;;;;;9.22;83.24;100308.38;2064478;28;20269;-72
2022/10/22 03:21:45;;;;;;;31.95;14.50;;;;;;;9.23;82.77;100319.91;2065083;28;20297;-72
2022/10/22 03:22:55;;;;;;;36.08;14.75;;;;;;;9.26;82.75;100316.66;2073111;28;20038;-72
2022/10/22 03:24:01;;;;;;;32.65;14.77;;;;;;;9.26;82.88;100320.16;2064027;28;20289;-72
2022/10/22 03:25:09;;;;;;;32.80;15.10;;;;;;;9.27;82.44;100326.34;2048207;28;20298;-72
2022/10/22 03:26:13;;;;;;;32.72;14.35;;;;;;;9.26;82.38;100336.25;2056439;28;20293;-72
2022/10/22 03:27:25;;;;;;;30.30;14.48;;;;;;;9.24;82.56;100335.75;2063857;28;20785;-72
2022/10/22 03:28:32;;;;;;;32.30;15.75;;;;;;;9.22;82.26;100337.09;2064237;28;20277;-72
2022/10/22 03:29:39;;;;;;;31.52;15.15;;;;;;;9.21;82.50;100332.81;2064257;28;20788;-72
2022/10/22 03:30:46;;;;;;;32.75;15.55;;;;;;;9.19;82.09;100333.06;2065349;28;20304;-72
2022/10/22 03:31:51;;;;;;;33.65;15.55;;;;;;;9.20;82.53;100342.72;2064622;28;20296;-72
2022/10/22 03:32:59;;;;;;;28.10;14.73;;;;;;;9.21;82.28;100335.50;2071270;28;20277;-72
2022/10/22 03:34:02;;;;;;;31.38;15.32;;;;;;;9.22;82.55;100342.44;2071465;28;20856;-72
2022/10/22 03:35:06;;;;;;;28.90;15.07;;;;;;;9.23;82.80;100336.00;2063845;28;20293;-72
2022/10/22 03:36:09;;;;;;;32.20;15.23;;;;;;;9.24;82.52;100333.06;2056023;28;20298;-72
2022/10/22 03:37:16;;;;;;;34.38;15.75;;;;;;;9.24;82.82;100335.75;2064136;28;20293;-72
2022/10/22 03:38:19;;;;;;;34.85;15.52;;;;;;;9.25;82.38;100331.97;2071755;28;20289;-72
2022/10/22 03:39:23;;;;;;;34.10;15.70;;;;;;;9.27;83.01;100334.41;2071986;28;20280;-72
2022/10/22 03:40:27;;;;;;;32.65;15.55;;;;;;;9.30;83.14;100331.16;2071839;28;20293;-72
2022/10/22 03:41:33;;;;;;;30.80;15.50;;;;;;;9.33;82.55;100325.25;2071834;28;20813;-72
2022/10/22 03:42:36;;;;;;;37.40;15.57;;;;;;;9.36;82.77;100323.88;2062551;28;20308;-72
2022/10/22 03:43:51;;;;;;;36.58;15.50;;;;;;;9.37;82.39;100328.97;2065254;28;20292;-72
2022/10/22 03:44:56;;;;;;;35.47;16.25;;;;;;;9.41;82.75;100329.22;2071159;28;20284;-72
2022/10/22 03:45:59;;;;;;;34.90;15.52;;;;;;;9.43;82.42;100335.94;2070676;28;20308;-73
2022/10/22 03:47:06;;;;;;;34.20;15.32;;;;;;;9.42;82.62;100326.25;2071893;28;20340;-72
2022/10/22 03:48:09;;;;;;;39.30;15.75;;;;;;;9.44;82.42;100332.16;2064581;28;20324;-72
2022/10/22 03:49:14;;;;;;;32.88;15.43;;;;;;;9.45;82.28;100325.69;2064144;28;20038;-72
2022/10/22 03:50:16;;;;;;;36.35;16.17;;;;;;;9.44;82.14;100323.31;2071081;28;20292;-72
2022/10/22 03:51:21;;;;;;;32.35;15.02;;;;;;;9.45;81.65;100333.75;2071521;28;20443;-71
2022/10/22 03:52:33;;;;;;;39.20;15.38;;;;;;;9.47;82.00;100326.22;2064695;28;20292;-72
2022/10/22 03:53:36;;;;;;;33.78;15.50;;;;;;;9.48;82.32;100330.50;2066261;28;20290;-72
2022/10/22 03:54:39;;;;;;;31.70;14.60;;;;;;;9.49;82.06;100329.44;2072874;28;20045;-71
2022/10/22 03:55:43;;;;;;;32.88;14.70;;;;;;;9.49;82.23;100329.44;2072616;28;20676;-71
2022/10/22 03:56:49;;;;;;;32.45;15.05;;;;;;;9.51;82.08;100332.63;2065316;28;20138;-71
2022/10/22 03:57:56;;;;;;;33.35;14.90;;;;;;;9.52;82.02;100334.25;2072673;28;20883;-72
2022/10/22 03:59:03;;;;;;;38.50;15.05;;;;;;;9.56;82.00;100334.50;2072184;28;20529;-71
2022/10/22 04:00:10;;;;;;;29.85;14.30;;;;;;;9.59;81.72;100338.53;2063791;28;20281;-72
2022/10/22 04:01:13;;;;;;;30.08;14.32;;;;;;;9.61;82.01;100341.72;2062476;28;20300;-72
2022/10/22 04:02:20;;;;;;;30.15;13.80;;;;;;;9.62;81.94;100343.34;2063865;28;20038;-71
2022/10/22 04:03:22;;;;;;;29.83;14.45;;;;;;;9.63;81.59;100342.25;2055534;28;20284;-71
2022/10/22 04:04:25;;;;;;;35.95;15.40;;;;;;;9.65;81.51;100337.44;2055735;28;20317;-71
2022/10/22 04:05:27;;;;;;;31.45;14.48;;;;;;;9.66;81.76;100344.38;2063496;28;20357;-71
2022/10/22 04:06:30;;;;;;;33.38;14.68;;;;;;;9.66;81.47;100347.06;2063780;28;20030;-71
2022/10/22 04:07:37;;;;;;;30.65;14.50;;;;;;;9.66;81.95;100350.56;2079420;28;20057;-72
2022/10/22 04:08:39;;;;;;;32.80;15.32;;;;;;;9.64;81.22;100347.34;2079534;28;20342;-72
2022/10/22 04:09:44;;;;;;;34.25;14.85;;;;;;;9.65;81.26;100348.97;2056885;28;20297;-72
2022/10/22 04:10:52;;;;;;;32.80;15.23;;;;;;;9.66;81.73;100355.13;2057719;28;20034;-71
2022/10/22 04:11:56;;;;;;;29.25;14.00;;;;;;;9.67;81.11;100351.34;2065657;28;20289;-72
2022/10/22 04:12:59;;;;;;;33.58;14.95;;;;;;;9.68;81.55;100355.66;2066187;28;20041;-72
2022/10/22 04:14:03;;;;;;;30.35;14.32;;;;;;;9.68;81.13;100355.66;2066110;28;20402;-72
2022/10/22 04:15:09;;;;;;;35.95;14.95;;;;;;;9.70;80.86;100356.16;2050733;28;20287;-72
2022/10/22 04:16:17;;;;;;;31.90;14.73;;;;;;;9.71;81.12;100355.09;2053331;28;20607;-72
2022/10/22 04:17:23;;;;;;;31.02;14.15;;;;;;;9.73;81.45;100352.94;2067380;28;20200;-71
2022/10/22 04:18:28;;;;;;;28.75;14.38;;;;;;;9.74;81.14;100351.84;2066373;28;20042;-72
2022/10/22 04:19:35;;;;;;;27.95;13.63;;;;;;;9.76;80.99;100349.69;2066762;28;20042;-72
2022/10/22 04:20:37;;;;;;;31.08;14.40;;;;;;;9.77;81.40;100347.81;2066609;28;20320;-72
2022/10/22 04:21:42;;;;;;;33.58;15.10;;;;;;;9.78;81.18;100346.75;2073421;28;20054;-72
2022/10/22 04:22:44;;;;;;;29.80;14.60;;;;;;;9.78;80.96;100347.53;2065869;28;20306;-72
2022/10/22 04:23:50;;;;;;;31.38;14.63;;;;;;;9.79;80.85;100342.97;2066104;28;20057;-72
2022/10/22 04:24:55;;;;;;;31.10;14.10;;;;;;;9.79;81.10;100343.75;2071971;28;20304;-72
2022/10/22 04:26:01;;;;;;;33.17;14.77;;;;;;;9.80;80.82;100340.00;2073824;28;20071;-72
2022/10/22 04:27:04;;;;;;;31.45;14.80;;;;;;;9.82;80.68;100339.72;2065976;28;20308;-72
2022/10/22 04:28:09;;;;;;;35.80;15.00;;;;;;;9.82;80.81;100343.22;2049877;28;20290;-72
2022/10/22 04:29:13;;;;;;;35.78;14.18;;;;;;;9.77;81.00;100337.84;2058261;28;20045;-72
2022/10/22 04:30:18;;;;;;;35.40;14.93;;;;;;;9.76;80.68;100338.94;2072740;28;20296;-72
2022/10/22 04:31:25;;;;;;;33.22;14.52;;;;;;;9.75;80.72;100337.34;2063321;28;20309;-71
2022/10/22 04:32:27;;;;;;;30.05;13.85;;;;;;;9.74;81.45;100333.88;2057025;28;20790;-72
2022/10/22 04:33:35;;;;;;;28.15;14.35;;;;;;;9.73;80.75;100334.13;2064548;28;20286;-71
2022/10/22 04:34:39;;;;;;;34.15;14.65;;;;;;;9.73;80.91;100329.56;2057811;28;20426;-71
2022/10/22 04:35:45;;;;;;;30.80;15.30;;;;;;;9.76;81.17;100333.59;2057229;28;20054;-71
2022/10/22 04:36:48;;;;;;;29.08;14.27;;;;;;;9.79;81.40;100322.28;2064628;28;20308;-71
2022/10/22 04:37:54;;;;;;;31.77;14.63;;;;;;;9.81;81.30;100325.50;2064824;28;20058;-72
2022/10/22 04:38:59;;;;;;;32.78;14.52;;;;;;;9.81;81.10;100320.13;2057122;28;20046;-72
2022/10/22 04:40:04;;;;;;;33.63;14.57;;;;;;;9.80;81.32;100323.09;2065450;28;20304;-73
2022/10/22 04:41:13;;;;;;;28.38;14.68;;;;;;;9.79;81.96;100322.28;2065136;28;20297;-72
2022/10/22 04:42:17;;;;;;;31.75;14.05;;;;;;;9.77;81.44;100319.06;2065579;28;20558;-73
2022/10/22 04:43:20;;;;;;;31.13;13.85;;;;;;;9.74;81.30;100315.09;2065799;28;20042;-73
2022/10/22 04:44:24;;;;;;;33.67;14.60;;;;;;;9.73;81.57;100310.78;2074188;28;20050;-73
2022/10/22 04:45:29;;;;;;;31.73;14.73;;;;;;;9.78;81.73;100315.31;2065148;28;20034;-73
2022/10/22 04:46:35;;;;;;;32.55;14.13;;;;;;;9.78;81.56;100309.94;2054799;28;20073;-73
2022/10/22 04:47:40;;;;;;;29.80;14.85;;;;;;;9.77;81.87;100313.69;2058176;28;20049;-73
2022/10/22 04:48:46;;;;;;;31.75;14.50;;;;;;;9.78;81.52;100309.94;2051661;28;20170;-73
2022/10/22 04:49:54;;;;;;;33.47;15.63;;;;;;;9.79;81.73;100311.53;2057774;28;20062;-73
2022/10/22 04:50:58;;;;;;;30.08;14.80;;;;;;;9.82;81.59;100316.34;2074865;28;20340;-73
2022/10/22 04:52:03;;;;;;;35.30;14.05;;;;;;;9.84;82.09;100311.53;2065388;28;20045;-72
2022/10/22 04:53:05;;;;;;;31.77;14.48;;;;;;;9.88;82.13;100312.56;2058306;28;20391;-72
2022/10/22 04:54:13;;;;;;;33.95;14.68;;;;;;;9.90;81.95;100309.59;2065489;28;20380;-71
2022/10/22 04:55:17;;;;;;;32.80;15.07;;;;;;;9.91;81.99;100313.88;2073567;28;20401;-72
2022/10/22 04:56:25;;;;;;;25.48;13.52;;;;;;;9.92;81.89;100316.28;2073750;28;20039;-72
2022/10/22 04:57:32;;;;;;;29.73;14.43;;;;;;;9.91;81.63;100320.06;2066591;28;20285;-73
2022/10/22 04:58:34;;;;;;;31.13;14.20;;;;;;;9.89;81.52;100318.72;2064108;28;20054;-73
2022/10/22 04:59:37;;;;;;;31.27;13.68;;;;;;;9.88;81.93;100311.75;2063659;28;20046;-73
2022/10/22 05:00:48;;;;;;;27.55;13.73;;;;;;;9.87;82.09;100316.34;2063460;28;20058;-73
2022/10/22 05:01:50;;;;;;;32.17;14.38;;;;;;;9.81;82.08;100314.75;2071105;28;20045;-73
2022/10/22 05:02:57;;;;;;;33.67;14.05;;;;;;;9.76;82.18;100317.47;2071237;28;20049;-72
2022/10/22 05:04:01;;;;;;;35.53;15.40;;;;;;;9.77;81.96;100318.28;2048143;28;20627;-71
2022/10/22 05:05:10;;;;;;;;;;;;;;;9.75;81.79;100322.03;2056785;28;20049;-72
2022/10/22 05:06:13;;;;;;;31.92;13.23;;;;;;;9.77;82.19;100320.94;2063511;28;19917;-71
2022/10/22 05:07:18;;;;;;;30.17;14.30;;;;;;;9.79;82.02;100327.66;2062848;28;20046;-71
2022/10/22 05:08:20;;;;;;;31.10;14.57;;;;;;;9.79;82.23;100321.50;2055210;28;20676;-71